»·PEaware :: N316AS KCNO-KBUR

N316AS :: KCNO-KBUR

FLIGHT INFORMATION

Flight Status: Arrived
Operator: Privately registered:
United States
More flights under this callsign
Pilot: Aero Safety Training (369)
Aircraft: CESSNA 172 SKYHAWK
(C172)
More flights by this aircraft type
Origin: KCNO Chino
United States
Destination: KBUR Bob Hope-Burbank
United States
More flights between these airports :: More routes between these airports
Route: PDZ V186 VNY
File this flight plan on PilotEdge
Remarks: requesting ILS 8 VOR 8 GPS A into KBUR
Altitude:
(Current/Filed)
6,000ft
Speed:
(Current/Filed)
105kts
Departed: 23-Oct-14 08:51 AM
Arrived: 23-Oct-14 09:44 AM
Distance/Time
Traveled:
39nm/0:53
Distance/Time
To Go:
Arrived

Flight Plot

Page will automatically refresh every two minutes.


Map Options




Map Legend


Flown Route
Filed Route
Departure Airport
Arrival Airport
Navaid (VOR, NDB)
Fix

Horizontal Profiles

Position Reports

Time Latitude Longitude Heading Altitude Ground
Speed
23-Oct-14 08:28 33.978571 -117.636912 174 655ft 0kts
23-Oct-14 08:29 33.978567 -117.636912 174 655ft 0kts
23-Oct-14 08:30 33.978563 -117.636911 174 655ft 0kts
23-Oct-14 08:31 33.978559 -117.636911 174 655ft 0kts
23-Oct-14 08:32 33.978555 -117.636911 174 655ft 0kts
23-Oct-14 08:33 33.978551 -117.636910 174 655ft 0kts
23-Oct-14 08:34 33.978547 -117.636910 174 655ft 0kts
23-Oct-14 08:35 33.978543 -117.636909 174 655ft 0kts
23-Oct-14 08:36 33.978539 -117.636909 174 655ft 0kts
23-Oct-14 08:37 33.978535 -117.636908 174 655ft 0kts
23-Oct-14 08:38 33.978531 -117.636908 173 655ft 0kts
23-Oct-14 08:39 33.978527 -117.636907 173 655ft 0kts
23-Oct-14 08:40 33.978523 -117.636906 173 655ft 0kts
23-Oct-14 08:41 33.978519 -117.636906 173 655ft 0kts
23-Oct-14 08:42 33.978515 -117.636905 173 655ft 0kts
23-Oct-14 08:43 33.978412 -117.635819 76 655ft 0kts
23-Oct-14 08:44 33.978024 -117.635290 190 655ft 14kts
23-Oct-14 08:45 33.976985 -117.635578 130 655ft 6kts
23-Oct-14 08:46 33.976940 -117.631072 166 655ft 13kts
23-Oct-14 08:47 33.976453 -117.631061 180 655ft 0kts
23-Oct-14 08:48 33.976451 -117.631061 180 655ft 0kts
23-Oct-14 08:49 33.976050 -117.631093 203 655ft 12kts
23-Oct-14 08:50 33.976332 -117.646325 275 1124ft 70kts
23-Oct-14 08:51 33.977764 -117.669847 272 2207ft 68kts
23-Oct-14 08:52 33.978389 -117.692946 271 3136ft 69kts
23-Oct-14 08:53 33.983552 -117.715130 292 3974ft 70kts
23-Oct-14 08:54 33.991962 -117.736784 293 4793ft 70kts
23-Oct-14 08:55 34.001059 -117.757476 293 5484ft 73kts
23-Oct-14 08:56 34.009036 -117.781191 287 6001ft 91kts
23-Oct-14 08:57 34.017660 -117.810206 287 6034ft 103kts
23-Oct-14 08:58 34.026513 -117.849524 291 5998ft 129kts
23-Oct-14 08:59 34.038156 -117.890624 295 6093ft 132kts
23-Oct-14 09:00 34.051306 -117.933011 296 6040ft 133kts
23-Oct-14 09:01 34.064691 -117.975291 296 5989ft 135kts
23-Oct-14 09:02 34.078184 -118.017670 291 5942ft 132kts
23-Oct-14 09:03 34.090359 -118.058228 299 5991ft 127kts
23-Oct-14 09:04 34.103625 -118.098716 298 5989ft 131kts
23-Oct-14 09:05 34.116490 -118.139780 293 6034ft 131kts
23-Oct-14 09:06 34.128934 -118.181339 295 6049ft 131kts
23-Oct-14 09:07 34.141941 -118.223055 296 6027ft 134kts
23-Oct-14 09:08 34.145733 -118.267946 272 6020ft 136kts
23-Oct-14 09:09 34.147741 -118.313369 272 6005ft 138kts
23-Oct-14 09:10 34.150209 -118.360910 272 6119ft 144kts
23-Oct-14 09:11 34.152265 -118.406208 274 6007ft 132kts
23-Oct-14 09:12 34.153594 -118.450719 272 5992ft 132kts
23-Oct-14 09:13 34.154866 -118.495167 271 6000ft 135kts
23-Oct-14 09:14 34.155325 -118.538688 268 5355ft 130kts
23-Oct-14 09:15 34.156479 -118.582567 273 4581ft 125kts
23-Oct-14 09:16 34.169813 -118.610318 26 3830ft 94kts
23-Oct-14 09:17 34.188815 -118.592346 64 3088ft 85kts
23-Oct-14 09:18 34.200069 -118.566284 89 3088ft 93kts
23-Oct-14 09:19 34.200279 -118.535404 88 3112ft 89kts
23-Oct-14 09:20 34.199522 -118.508230 91 2976ft 71kts
23-Oct-14 09:21 34.199375 -118.482332 94 2611ft 77kts
23-Oct-14 09:22 34.199308 -118.457608 93 2261ft 77kts
23-Oct-14 09:23 34.198646 -118.431442 93 1858ft 78kts
23-Oct-14 09:24 34.198354 -118.404663 89 1401ft 81kts
23-Oct-14 09:25 34.198127 -118.378515 88 1014ft 75kts
23-Oct-14 09:26 34.195748 -118.352942 118 1954ft 79kts
23-Oct-14 09:27 34.176271 -118.366087 223 2992ft 99kts
23-Oct-14 09:28 34.154991 -118.392571 222 3204ft 113kts
23-Oct-14 09:29 34.141191 -118.423537 287 3211ft 109kts
23-Oct-14 09:30 34.148995 -118.461834 285 3285ft 123kts
23-Oct-14 09:31 34.156029 -118.502771 283 3217ft 124kts
23-Oct-14 09:32 34.163628 -118.543054 285 3186ft 122kts
23-Oct-14 09:33 34.170901 -118.582492 281 3202ft 120kts
23-Oct-14 09:34 34.194810 -118.594721 13 3211ft 103kts
23-Oct-14 09:35 34.215303 -118.578148 65 3227ft 93kts
23-Oct-14 09:36 34.222838 -118.548272 80 3233ft 93kts
23-Oct-14 09:37 34.223469 -118.517360 88 3267ft 92kts
23-Oct-14 09:38 34.223361 -118.486072 89 3270ft 93kts
23-Oct-14 09:39 34.217156 -118.461541 105 2894ft 85kts
23-Oct-14 09:40 34.211703 -118.434396 101 2176ft 82kts
23-Oct-14 09:41 34.207149 -118.411884 101 1602ft 81kts
23-Oct-14 09:42 34.201078 -118.382498 101 1334ft 72kts
23-Oct-14 09:43 34.197778 -118.364811 122 781ft 12kts
23-Oct-14 09:44 34.197241 -118.364540 181 781ft 0kts

Navigation Log

Ident Type
1. KCNO Airport
2. PDZ Navaid
3. TIFNI Fix
4. BAYJY Fix
5. ADAMM Fix
6. PIRRO Fix
7. ITSME Fix
8. ELMOO Fix
9. PURMS Fix
10. DARTS Fix
11. VNY Navaid
12. KBUR Airport